Time;durP1;ratioP1;P1;durP2;ratioP2;P2;SDS_P1;SDS_P2;PMS_P1;PMS_P2;Temp;Humidity;BMP_temperature;BMP_pressure;BME280_temperature;BME280_humidity;BME280_pressure;Samples;Min_cycle;Max_cycle;Signal;HPM_P1;HPM_P2
2023/09/21 00:01:52;;;;;;;3.60;2.05;;;;;;;;;;5058888;28;20492;-62
2023/09/21 00:04:17;;;;;;;6.38;2.30;;;;;;;;;;5050156;28;20017;-61
2023/09/21 00:06:44;;;;;;;5.15;2.17;;;;;;;;;;5062040;28;20047;-62
2023/09/21 00:09:09;;;;;;;3.10;2.80;;;;;;;;;;5070212;28;20139;-61
2023/09/21 00:11:36;;;;;;;6.33;2.33;;;;;;;;;;5070265;28;20124;-62
2023/09/21 00:14:02;;;;;;;2.03;1.73;;;;;;;;;;5073059;28;21027;-61
2023/09/21 00:16:27;;;;;;;3.42;2.60;;;;;;;;;;5072355;28;20033;-61
2023/09/21 00:18:53;;;;;;;2.28;2.08;;;;;;;;;;5073735;28;20024;-62
2023/09/21 00:21:18;;;;;;;2.55;2.25;;;;;;;;;;5071734;28;20032;-61
2023/09/21 00:23:44;;;;;;;1.92;1.80;;;;;;;;;;5073571;28;20023;-61
2023/09/21 00:26:10;;;;;;;3.42;2.33;;;;;;;;;;5072406;28;20484;-61
2023/09/21 00:28:35;;;;;;;4.47;2.20;;;;;;;;;;5073332;28;20024;-61
2023/09/21 00:31:02;;;;;;;2.20;1.70;;;;;;;;;;5071948;28;20039;-61
2023/09/21 00:33:27;;;;;;;8.07;3.03;;;;;;;;;;5065330;28;20949;-61
2023/09/21 00:35:53;;;;;;;6.82;3.25;;;;;;;;;;5071357;28;20071;-62
2023/09/21 00:38:19;;;;;;;7.88;2.70;;;;;;;;;;5073575;28;20048;-61
2023/09/21 00:40:44;;;;;;;4.57;3.10;;;;;;;;;;5071859;28;20451;-61
2023/09/21 00:43:18;;;;;;;5.13;3.03;;;;;;;;;;5045406;28;20049;-61
2023/09/21 00:45:46;;;;;;;7.13;2.83;;;;;;;;;;5051841;28;20036;-61
2023/09/21 00:48:12;;;;;;;2.35;1.98;;;;;;;;;;5073406;28;20349;-61
2023/09/21 00:50:37;;;;;;;5.22;2.38;;;;;;;;;;5071450;28;20028;-61
2023/09/21 00:53:05;;;;;;;7.28;2.35;;;;;;;;;;5042744;28;20087;-61
2023/09/21 00:55:31;;;;;;;21.17;3.93;;;;;;;;;;5036056;28;20069;-61
2023/09/21 00:57:59;;;;;;;2.67;2.30;;;;;;;;;;5069200;28;20431;-60
2023/09/21 01:00:25;;;;;;;2.65;2.08;;;;;;;;;;5071628;28;20537;-61
2023/09/21 01:02:51;;;;;;;2.78;1.77;;;;;;;;;;5072711;28;20020;-61
2023/09/21 01:05:17;;;;;;;4.30;2.35;;;;;;;;;;5069430;28;20065;-62
2023/09/21 01:07:44;;;;;;;4.22;2.17;;;;;;;;;;5072876;28;20020;-61
2023/09/21 01:10:11;;;;;;;3.47;2.50;;;;;;;;;;5068305;28;20471;-61
2023/09/21 01:12:37;;;;;;;3.45;3.15;;;;;;;;;;5071465;28;20506;-61
2023/09/21 01:15:04;;;;;;;3.00;2.03;;;;;;;;;;5071709;28;20024;-61
2023/09/21 01:17:30;;;;;;;5.07;2.83;;;;;;;;;;5062505;28;20667;-61
2023/09/21 01:19:56;;;;;;;6.20;2.40;;;;;;;;;;5053315;28;20021;-61
2023/09/21 01:22:22;;;;;;;7.57;2.83;;;;;;;;;;5069265;28;20062;-62
2023/09/21 01:24:47;;;;;;;3.72;2.95;;;;;;;;;;5072780;28;20383;-61
2023/09/21 01:27:13;;;;;;;3.20;2.28;;;;;;;;;;5070885;28;20062;-62
2023/09/21 01:29:38;;;;;;;3.95;2.10;;;;;;;;;;5071863;28;20051;-61
2023/09/21 01:32:03;;;;;;;2.83;1.70;;;;;;;;;;5069508;28;20036;-61
2023/09/21 01:34:28;;;;;;;3.83;3.50;;;;;;;;;;5071772;28;20410;-61
2023/09/21 01:36:55;;;;;;;5.77;3.00;;;;;;;;;;5070156;28;20029;-63
2023/09/21 01:39:21;;;;;;;6.30;3.67;;;;;;;;;;5072649;28;20021;-63
2023/09/21 01:41:46;;;;;;;4.93;3.05;;;;;;;;;;5070096;28;20032;-63
2023/09/21 01:44:12;;;;;;;2.23;1.50;;;;;;;;;;5071594;28;20066;-63
2023/09/21 01:46:37;;;;;;;11.00;2.70;;;;;;;;;;5069819;28;20071;-63
2023/09/21 01:49:03;;;;;;;4.93;2.80;;;;;;;;;;5072204;28;20043;-63
2023/09/21 01:51:28;;;;;;;2.80;2.05;;;;;;;;;;5069029;28;20033;-63
2023/09/21 01:53:54;;;;;;;3.25;2.03;;;;;;;;;;5055923;28;20021;-63
2023/09/21 01:56:19;;;;;;;7.30;2.38;;;;;;;;;;5061121;28;20033;-63
2023/09/21 01:58:45;;;;;;;4.18;1.73;;;;;;;;;;5071309;28;20081;-62
2023/09/21 02:01:10;;;;;;;2.10;1.90;;;;;;;;;;5070640;28;20052;-63
2023/09/21 02:03:35;;;;;;;3.38;2.30;;;;;;;;;;5071280;28;20411;-63
2023/09/21 02:06:02;;;;;;;5.63;2.58;;;;;;;;;;5070122;28;20032;-63
2023/09/21 02:08:27;;;;;;;5.93;2.95;;;;;;;;;;5072026;28;20392;-63
2023/09/21 02:10:52;;;;;;;4.75;2.10;;;;;;;;;;5070027;28;20048;-62
2023/09/21 02:13:18;;;;;;;13.93;3.35;;;;;;;;;;5071144;28;20066;-62
2023/09/21 02:15:51;;;;;;;3.03;2.10;;;;;;;;;;5070195;28;20040;-62
2023/09/21 02:18:16;;;;;;;2.22;2.03;;;;;;;;;;5071585;28;20040;-61
2023/09/21 02:20:43;;;;;;;3.25;2.92;;;;;;;;;;5069490;28;20403;-61
2023/09/21 02:23:09;;;;;;;;;;;;;;;;;;5072199;28;20403;-62
2023/09/21 02:25:35;;;;;;;4.53;2.47;;;;;;;;;;5069543;28;19912;-62
2023/09/21 02:28:03;;;;;;;7.30;2.17;;;;;;;;;;5057292;28;20033;-61
2023/09/21 02:30:31;;;;;;;5.97;1.95;;;;;;;;;;5049223;28;20039;-61
2023/09/21 02:32:57;;;;;;;5.13;2.75;;;;;;;;;;5060706;28;20491;-62
2023/09/21 02:35:24;;;;;;;4.05;2.70;;;;;;;;;;5067067;28;20067;-61
2023/09/21 02:37:50;;;;;;;5.13;2.00;;;;;;;;;;5070558;28;20027;-62
2023/09/21 02:40:17;;;;;;;4.15;1.98;;;;;;;;;;5068159;28;20025;-62
2023/09/21 02:42:43;;;;;;;2.30;2.00;;;;;;;;;;5070412;28;20077;-62
2023/09/21 02:45:12;;;;;;;4.95;2.00;;;;;;;;;;5069380;28;20020;-61
2023/09/21 02:47:38;;;;;;;6.18;3.20;;;;;;;;;;5070889;28;20013;-62
2023/09/21 02:50:14;;;;;;;5.47;2.20;;;;;;;;;;5069299;28;20020;-61
2023/09/21 02:52:44;;;;;;;3.63;2.60;;;;;;;;;;5070629;28;20160;-62
2023/09/21 02:55:09;;;;;;;4.75;2.17;;;;;;;;;;5069355;28;20107;-62
2023/09/21 02:57:34;;;;;;;2.28;2.00;;;;;;;;;;5070255;28;20434;-61
2023/09/21 03:00:08;;;;;;;5.17;2.23;;;;;;;;;;5070817;28;20020;-63
2023/09/21 03:02:33;;;;;;;3.20;2.58;;;;;;;;;;5048829;28;20045;-63
2023/09/21 03:05:00;;;;;;;4.53;1.80;;;;;;;;;;5050252;28;20021;-63
2023/09/21 03:07:27;;;;;;;2.90;2.08;;;;;;;;;;5049340;28;20120;-62
2023/09/21 03:09:53;;;;;;;5.95;3.15;;;;;;;;;;5050428;28;20446;-62
2023/09/21 03:12:20;;;;;;;2.30;1.83;;;;;;;;;;5067257;28;20033;-63
2023/09/21 03:14:46;;;;;;;2.53;1.88;;;;;;;;;;5063222;28;20037;-63
2023/09/21 03:17:12;;;;;;;4.03;2.55;;;;;;;;;;5066831;28;20029;-64
2023/09/21 03:19:37;;;;;;;4.47;2.20;;;;;;;;;;5070270;28;20482;-63
2023/09/21 03:22:04;;;;;;;2.05;1.90;;;;;;;;;;5068701;28;20818;-63
2023/09/21 03:24:29;;;;;;;4.07;1.90;;;;;;;;;;5070279;28;20474;-63
2023/09/21 03:26:54;;;;;;;11.23;3.10;;;;;;;;;;5068396;28;20119;-62
2023/09/21 03:29:20;;;;;;;3.80;2.00;;;;;;;;;;5070474;28;20016;-62
2023/09/21 03:31:45;;;;;;;5.50;2.70;;;;;;;;;;5068951;28;20036;-62
2023/09/21 03:34:10;;;;;;;2.63;2.50;;;;;;;;;;5051323;28;20068;-63
2023/09/21 03:36:38;;;;;;;1.30;1.20;;;;;;;;;;5068514;28;20033;-63
2023/09/21 03:39:09;;;;;;;3.22;2.60;;;;;;;;;;5066218;28;20009;-63
2023/09/21 03:41:34;;;;;;;2.63;2.20;;;;;;;;;;5060892;28;20119;-63
2023/09/21 03:43:59;;;;;;;5.77;2.20;;;;;;;;;;5070487;28;20096;-62
2023/09/21 03:46:25;;;;;;;2.43;2.23;;;;;;;;;;5068295;28;20411;-63
2023/09/21 03:48:51;;;;;;;3.35;1.80;;;;;;;;;;5069883;28;20021;-63
2023/09/21 03:51:16;;;;;;;4.38;2.10;;;;;;;;;;5068844;28;20467;-62
2023/09/21 03:53:42;;;;;;;3.70;2.43;;;;;;;;;;5069861;28;20047;-62
2023/09/21 03:56:07;;;;;;;5.07;2.72;;;;;;;;;;5068349;28;20039;-63
2023/09/21 03:58:32;;;;;;;3.90;1.80;;;;;;;;;;5069866;28;20099;-63
2023/09/21 04:01:04;;;;;;;3.72;2.13;;;;;;;;;;5068389;28;20094;-63
2023/09/21 04:03:29;;;;;;;1.88;1.77;;;;;;;;;;5069774;28;20070;-62
2023/09/21 04:05:54;;;;;;;6.25;2.83;;;;;;;;;;5068294;28;20036;-62
2023/09/21 04:08:20;;;;;;;7.30;4.10;;;;;;;;;;5070166;28;20060;-62
2023/09/21 04:10:45;;;;;;;4.50;3.20;;;;;;;;;;5067871;28;20054;-62
2023/09/21 04:13:10;;;;;;;5.72;2.13;;;;;;;;;;5069002;28;20418;-61
2023/09/21 04:15:35;;;;;;;1.95;1.77;;;;;;;;;;5068035;28;20040;-60
2023/09/21 04:18:01;;;;;;;9.07;2.75;;;;;;;;;;5069926;28;20052;-61
2023/09/21 04:20:31;;;;;;;3.88;3.13;;;;;;;;;;5068510;28;20035;-61
2023/09/21 04:22:56;;;;;;;5.10;1.95;;;;;;;;;;5051486;28;20047;-61
2023/09/21 04:25:22;;;;;;;2.13;1.70;;;;;;;;;;5058545;28;20459;-61
2023/09/21 04:27:48;;;;;;;1.75;1.45;;;;;;;;;;5069915;28;20028;-60
2023/09/21 04:30:14;;;;;;;3.67;2.05;;;;;;;;;;5068051;28;20472;-61
2023/09/21 04:32:40;;;;;;;14.52;4.22;;;;;;;;;;5068167;28;20131;-59
2023/09/21 04:35:05;;;;;;;3.58;2.67;;;;;;;;;;5068306;28;20115;-59
2023/09/21 04:37:34;;;;;;;2.47;1.90;;;;;;;;;;5052885;28;20428;-59
2023/09/21 04:39:59;;;;;;;2.22;1.95;;;;;;;;;;5049596;28;20037;-59
2023/09/21 04:42:27;;;;;;;2.13;1.92;;;;;;;;;;5067030;28;20098;-59
2023/09/21 04:44:52;;;;;;;5.15;2.00;;;;;;;;;;5068434;28;20108;-59
2023/09/21 04:47:17;;;;;;;3.53;3.17;;;;;;;;;;5067861;28;20056;-59
2023/09/21 04:49:42;;;;;;;3.63;2.50;;;;;;;;;;5069437;28;20093;-58
2023/09/21 04:52:08;;;;;;;3.97;2.30;;;;;;;;;;5068257;28;20041;-58
2023/09/21 04:54:33;;;;;;;4.30;2.17;;;;;;;;;;5069099;28;20016;-59
2023/09/21 04:56:58;;;;;;;7.20;2.70;;;;;;;;;;5068071;28;20037;-58
2023/09/21 04:59:23;;;;;;;3.58;2.88;;;;;;;;;;5072999;28;20027;-58
2023/09/21 05:01:49;;;;;;;2.60;2.40;;;;;;;;;;5069922;28;20035;-58
2023/09/21 05:04:14;;;;;;;4.30;2.00;;;;;;;;;;5072773;28;20493;-58
2023/09/21 05:06:39;;;;;;;2.97;1.93;;;;;;;;;;5064144;28;20469;-58
2023/09/21 05:09:04;;;;;;;2.27;1.87;;;;;;;;;;5058124;28;20104;-58
2023/09/21 05:11:33;;;;;;;2.80;2.58;;;;;;;;;;5058599;28;21515;-58
2023/09/21 05:13:58;;;;;;;3.55;1.95;;;;;;;;;;5058795;28;20096;-58
2023/09/21 05:16:23;;;;;;;3.50;2.10;;;;;;;;;;5060925;28;20112;-58
2023/09/21 05:18:50;;;;;;;3.07;2.30;;;;;;;;;;5059694;28;20028;-58
2023/09/21 05:21:15;;;;;;;4.35;2.72;;;;;;;;;;5058666;28;20090;-59
2023/09/21 05:23:45;;;;;;;5.90;3.08;;;;;;;;;;5059968;28;20009;-58
2023/09/21 05:26:10;;;;;;;2.80;2.60;;;;;;;;;;5057726;28;20104;-58
2023/09/21 05:28:36;;;;;;;7.63;2.37;;;;;;;;;;5061412;28;20060;-58
2023/09/21 05:31:01;;;;;;;2.60;2.40;;;;;;;;;;5062145;28;20459;-58
2023/09/21 05:33:26;;;;;;;4.70;3.10;;;;;;;;;;5061869;28;20067;-59
2023/09/21 05:35:53;;;;;;;4.28;2.42;;;;;;;;;;5055288;28;20475;-58
2023/09/21 05:38:19;;;;;;;3.55;3.22;;;;;;;;;;5052594;28;20329;-58
2023/09/21 05:40:44;;;;;;;4.23;2.33;;;;;;;;;;5048822;28;20448;-58
2023/09/21 05:43:09;;;;;;;4.00;2.25;;;;;;;;;;5052557;28;20100;-59
2023/09/21 05:45:35;;;;;;;4.43;2.03;;;;;;;;;;5048799;28;20445;-58
2023/09/21 05:48:00;;;;;;;2.22;2.03;;;;;;;;;;5051837;28;20434;-58
2023/09/21 05:50:25;;;;;;;3.88;3.08;;;;;;;;;;5050978;28;20190;-59
2023/09/21 05:52:50;;;;;;;5.57;2.10;;;;;;;;;;5050609;28;20021;-59
2023/09/21 05:55:16;;;;;;;2.78;2.20;;;;;;;;;;5050161;28;20013;-59
2023/09/21 05:57:43;;;;;;;21.98;4.72;;;;;;;;;;5052161;28;20012;-58
2023/09/21 06:00:09;;;;;;;3.17;2.72;;;;;;;;;;5050409;28;20110;-59
2023/09/21 06:02:34;;;;;;;5.75;3.38;;;;;;;;;;5051297;28;20053;-59
2023/09/21 06:04:59;;;;;;;8.00;2.88;;;;;;;;;;5050855;28;20025;-58
2023/09/21 06:07:24;;;;;;;3.50;2.63;;;;;;;;;;5050394;28;20032;-58
2023/09/21 06:09:51;;;;;;;6.87;2.17;;;;;;;;;;5058460;28;20055;-59
2023/09/21 06:12:16;;;;;;;4.13;2.55;;;;;;;;;;5069174;28;20486;-59
2023/09/21 06:14:41;;;;;;;4.78;2.35;;;;;;;;;;5071468;28;20016;-59
2023/09/21 06:17:10;;;;;;;3.30;2.43;;;;;;;;;;5050433;28;20550;-58
2023/09/21 06:19:37;;;;;;;11.82;3.33;;;;;;;;;;5051666;28;20654;-58
2023/09/21 06:22:02;;;;;;;7.13;2.90;;;;;;;;;;5050059;28;20116;-58
2023/09/21 06:24:28;;;;;;;2.60;2.30;;;;;;;;;;5050142;28;20104;-59
2023/09/21 06:26:53;;;;;;;6.03;3.30;;;;;;;;;;5049663;28;20492;-58
2023/09/21 06:29:22;;;;;;;4.15;2.50;;;;;;;;;;5051543;28;20032;-59
2023/09/21 06:31:48;;;;;;;11.90;2.38;;;;;;;;;;5049491;28;20067;-59
2023/09/21 06:34:18;;;;;;;7.97;3.42;;;;;;;;;;5051308;28;20081;-59
2023/09/21 06:36:43;;;;;;;7.45;2.75;;;;;;;;;;5049833;28;20036;-59
2023/09/21 06:39:09;;;;;;;2.60;2.40;;;;;;;;;;5051301;28;20017;-58
2023/09/21 06:41:37;;;;;;;3.17;2.90;;;;;;;;;;5049507;28;20112;-59
2023/09/21 06:44:02;;;;;;;3.70;2.47;;;;;;;;;;5051662;28;20551;-58
2023/09/21 06:46:28;;;;;;;10.50;4.18;;;;;;;;;;5049341;28;20188;-58
2023/09/21 06:48:54;;;;;;;3.25;2.80;;;;;;;;;;5051013;28;20411;-59
2023/09/21 06:51:19;;;;;;;4.85;2.95;;;;;;;;;;5049688;28;20033;-58
2023/09/21 06:53:45;;;;;;;6.07;2.63;;;;;;;;;;5050507;28;20040;-58
2023/09/21 06:56:10;;;;;;;3.70;2.53;;;;;;;;;;5048073;28;20191;-59
2023/09/21 06:58:35;;;;;;;16.15;3.28;;;;;;;;;;5050912;28;20029;-58
2023/09/21 07:01:02;;;;;;;5.95;2.70;;;;;;;;;;5049109;28;20032;-59
2023/09/21 07:03:27;;;;;;;3.33;2.95;;;;;;;;;;5051062;28;20017;-60
2023/09/21 07:05:52;;;;;;;4.13;2.97;;;;;;;;;;5049069;28;20040;-60
2023/09/21 07:08:18;;;;;;;7.70;3.20;;;;;;;;;;5050264;28;20017;-59
2023/09/21 07:10:44;;;;;;;4.68;2.72;;;;;;;;;;5045020;28;20490;-59
2023/09/21 07:13:10;;;;;;;4.72;3.83;;;;;;;;;;5050394;28;20353;-58
2023/09/21 07:15:37;;;;;;;5.82;2.95;;;;;;;;;;5048622;28;20044;-59
2023/09/21 07:18:05;;;;;;;4.60;3.20;;;;;;;;;;5050347;28;20124;-59
2023/09/21 07:20:30;;;;;;;14.82;3.20;;;;;;;;;;5052886;28;20036;-59
2023/09/21 07:22:56;;;;;;;6.13;2.73;;;;;;;;;;5069986;28;20099;-59
2023/09/21 07:25:22;;;;;;;6.03;4.03;;;;;;;;;;5069356;28;20032;-60
2023/09/21 07:27:48;;;;;;;5.78;3.25;;;;;;;;;;5068989;28;20165;-59
2023/09/21 07:30:13;;;;;;;7.40;4.13;;;;;;;;;;5068418;28;20025;-59
2023/09/21 07:32:39;;;;;;;7.60;2.90;;;;;;;;;;5069987;28;20048;-59
2023/09/21 07:35:06;;;;;;;7.22;2.83;;;;;;;;;;5068998;28;20036;-58
2023/09/21 07:37:31;;;;;;;2.60;2.30;;;;;;;;;;5070348;28;20028;-58
2023/09/21 07:39:57;;;;;;;8.77;3.63;;;;;;;;;;5070403;28;20015;-59
2023/09/21 07:42:22;;;;;;;6.60;3.90;;;;;;;;;;5067329;28;20035;-59
2023/09/21 07:44:48;;;;;;;5.07;3.40;;;;;;;;;;5069900;28;20025;-58
2023/09/21 07:47:13;;;;;;;6.18;3.35;;;;;;;;;;5068582;28;20463;-60
2023/09/21 07:49:39;;;;;;;5.70;2.70;;;;;;;;;;5070410;28;20051;-59
2023/09/21 07:52:04;;;;;;;5.57;3.30;;;;;;;;;;5068846;28;20457;-59
2023/09/21 07:54:29;;;;;;;7.13;2.97;;;;;;;;;;5070079;28;20017;-59
2023/09/21 07:56:54;;;;;;;6.68;3.10;;;;;;;;;;5068459;28;20492;-59
2023/09/21 07:59:19;;;;;;;5.00;3.10;;;;;;;;;;5070342;28;20488;-59
2023/09/21 08:01:46;;;;;;;6.07;3.17;;;;;;;;;;5068039;28;20127;-59
2023/09/21 08:04:11;;;;;;;5.68;2.72;;;;;;;;;;5070543;28;20032;-59
2023/09/21 08:06:36;;;;;;;4.72;2.67;;;;;;;;;;5068055;28;20040;-59
2023/09/21 08:09:02;;;;;;;5.13;3.28;;;;;;;;;;5069985;28;20023;-60
2023/09/21 08:11:27;;;;;;;6.13;3.30;;;;;;;;;;5068826;28;20399;-59
2023/09/21 08:13:52;;;;;;;2.35;1.95;;;;;;;;;;5069979;28;20034;-59
2023/09/21 08:16:18;;;;;;;3.78;2.78;;;;;;;;;;5068317;28;20032;-59
2023/09/21 08:18:43;;;;;;;8.00;2.23;;;;;;;;;;5069866;28;20023;-59
2023/09/21 08:21:11;;;;;;;5.97;4.47;;;;;;;;;;5068554;28;20058;-60
2023/09/21 08:23:36;;;;;;;12.60;3.90;;;;;;;;;;5069220;28;20021;-58
2023/09/21 08:26:03;;;;;;;4.05;2.58;;;;;;;;;;5068721;28;20407;-59
2023/09/21 08:28:29;;;;;;;10.82;3.58;;;;;;;;;;5070123;28;20032;-59
2023/09/21 08:30:54;;;;;;;8.88;3.72;;;;;;;;;;5068087;28;20033;-59
2023/09/21 08:33:20;;;;;;;7.53;3.40;;;;;;;;;;5071814;28;20122;-59
2023/09/21 08:35:45;;;;;;;15.20;3.20;;;;;;;;;;5071861;28;20745;-59
2023/09/21 08:38:10;;;;;;;4.72;2.47;;;;;;;;;;5073567;28;20059;-59
2023/09/21 08:40:37;;;;;;;4.30;2.50;;;;;;;;;;5071835;28;20033;-59
2023/09/21 08:43:04;;;;;;;5.53;4.05;;;;;;;;;;5073686;28;20127;-58
2023/09/21 08:45:30;;;;;;;8.05;2.83;;;;;;;;;;5070347;28;20423;-58
2023/09/21 08:47:56;;;;;;;4.90;2.95;;;;;;;;;;5073473;28;20025;-73
2023/09/21 08:50:22;;;;;;;6.03;2.95;;;;;;;;;;5072248;28;20020;-59
2023/09/21 08:52:48;;;;;;;6.85;3.15;;;;;;;;;;5072804;28;20091;-60
2023/09/21 08:55:13;;;;;;;5.80;2.92;;;;;;;;;;5072137;28;20104;-57
2023/09/21 08:57:38;;;;;;;5.30;2.53;;;;;;;;;;5072980;28;20187;-60
2023/09/21 09:00:08;;;;;;;7.10;2.55;;;;;;;;;;5072959;28;20403;-57
2023/09/21 09:02:35;;;;;;;5.07;2.10;;;;;;;;;;5071361;28;20041;-57
2023/09/21 09:05:01;;;;;;;11.80;4.03;;;;;;;;;;5073423;28;20020;-57
2023/09/21 09:07:30;;;;;;;13.88;4.55;;;;;;;;;;5071321;28;20412;-57
2023/09/21 09:09:57;;;;;;;2.85;2.38;;;;;;;;;;5072941;28;20021;-57
2023/09/21 09:12:23;;;;;;;3.60;2.67;;;;;;;;;;5071688;28;20036;-57
2023/09/21 09:14:51;;;;;;;5.15;3.30;;;;;;;;;;5072534;28;20085;-57
2023/09/21 09:17:17;;;;;;;9.30;2.95;;;;;;;;;;5070141;28;20411;-57
2023/09/21 09:19:42;;;;;;;6.50;2.70;;;;;;;;;;5072832;28;20017;-57
2023/09/21 09:22:10;;;;;;;5.20;3.05;;;;;;;;;;5071023;28;20451;-57
2023/09/21 09:24:35;;;;;;;6.30;2.53;;;;;;;;;;5072704;28;20411;-60
2023/09/21 09:27:01;;;;;;;4.75;2.72;;;;;;;;;;5071309;28;20036;-59
2023/09/21 09:29:26;;;;;;;4.07;2.60;;;;;;;;;;5069525;28;20085;-60
2023/09/21 09:31:51;;;;;;;8.05;2.97;;;;;;;;;;5070263;28;20546;-59
2023/09/21 09:34:18;;;;;;;9.20;2.97;;;;;;;;;;5072408;28;20052;-60
2023/09/21 09:36:48;;;;;;;3.42;2.85;;;;;;;;;;5070553;28;20584;-60
2023/09/21 09:39:14;;;;;;;4.28;3.08;;;;;;;;;;5071584;28;20027;-60
2023/09/21 09:41:40;;;;;;;5.90;3.40;;;;;;;;;;5069835;28;20032;-59
2023/09/21 09:44:06;;;;;;;7.18;3.33;;;;;;;;;;5071780;28;20031;-68
2023/09/21 09:46:33;;;;;;;6.85;3.08;;;;;;;;;;5070888;28;20036;-61
2023/09/21 09:49:01;;;;;;;5.20;2.78;;;;;;;;;;5071061;28;20020;-60
2023/09/21 09:51:30;;;;;;;5.93;3.65;;;;;;;;;;5070633;28;20036;-57
2023/09/21 09:53:56;;;;;;;8.80;3.05;;;;;;;;;;5072136;28;20108;-57
2023/09/21 09:56:22;;;;;;;5.97;2.55;;;;;;;;;;5070696;28;20376;-57
2023/09/21 09:58:48;;;;;;;3.78;3.00;;;;;;;;;;5070244;28;20440;-58
2023/09/21 10:01:14;;;;;;;6.85;2.40;;;;;;;;;;5068048;28;20025;-58
2023/09/21 10:03:40;;;;;;;2.45;1.90;;;;;;;;;;5062365;28;20036;-58
2023/09/21 10:06:08;;;;;;;7.78;3.30;;;;;;;;;;5048912;28;20068;-58
2023/09/21 10:08:34;;;;;;;7.45;2.30;;;;;;;;;;5055085;28;20498;-58
2023/09/21 10:11:01;;;;;;;4.07;2.38;;;;;;;;;;5070093;28;20127;-58
2023/09/21 10:13:27;;;;;;;6.20;2.97;;;;;;;;;;5071263;28;20107;-58
2023/09/21 10:16:03;;;;;;;5.43;2.25;;;;;;;;;;5069752;28;20495;-58
2023/09/21 10:18:29;;;;;;;2.08;1.88;;;;;;;;;;5072013;28;20032;-58
2023/09/21 10:20:56;;;;;;;3.25;2.53;;;;;;;;;;5069705;28;20514;-58
2023/09/21 10:23:21;;;;;;;2.25;2.05;;;;;;;;;;5071539;28;20067;-58
2023/09/21 10:25:48;;;;;;;2.90;1.93;;;;;;;;;;5069772;28;20487;-58
2023/09/21 10:28:23;;;;;;;4.18;2.42;;;;;;;;;;5071606;28;20050;-58
2023/09/21 10:30:51;;;;;;;5.38;2.50;;;;;;;;;;5069955;28;20036;-63
2023/09/21 10:33:18;;;;;;;2.75;1.63;;;;;;;;;;5071379;28;20105;-58
2023/09/21 10:35:49;;;;;;;2.78;2.42;;;;;;;;;;5069540;28;20047;-58
2023/09/21 10:38:15;;;;;;;4.07;1.98;;;;;;;;;;5071662;28;20403;-58
2023/09/21 10:40:40;;;;;;;3.88;2.15;;;;;;;;;;5069523;28;20037;-58
2023/09/21 10:43:24;;;;;;;2.95;2.10;;;;;;;;;;5071049;28;20036;-58
2023/09/21 10:45:55;;;;;;;2.30;2.10;;;;;;;;;;5069526;28;20043;-59
2023/09/21 10:48:21;;;;;;;5.78;2.30;;;;;;;;;;5055172;28;20064;-58
2023/09/21 10:50:47;;;;;;;3.73;1.97;;;;;;;;;;5049292;28;20061;-59
2023/09/21 10:53:12;;;;;;;2.95;1.98;;;;;;;;;;5051366;28;20427;-58
2023/09/21 10:55:40;;;;;;;5.37;3.07;;;;;;;;;;5048426;28;20048;-59
2023/09/21 10:58:05;;;;;;;5.87;1.67;;;;;;;;;;5050958;28;20021;-59
2023/09/21 11:00:31;;;;;;;2.15;1.67;;;;;;;;;;5049416;28;20451;-59
2023/09/21 11:02:56;;;;;;;2.08;1.85;;;;;;;;;;5050673;28;20029;-59
2023/09/21 11:05:23;;;;;;;2.63;1.40;;;;;;;;;;5049224;28;20120;-59
2023/09/21 11:07:50;;;;;;;5.20;3.05;;;;;;;;;;5050924;28;20379;-59
2023/09/21 11:10:16;;;;;;;4.27;2.00;;;;;;;;;;5049423;28;20112;-58
2023/09/21 11:12:41;;;;;;;3.45;1.58;;;;;;;;;;5050367;28;20459;-59
2023/09/21 11:15:12;;;;;;;4.50;1.60;;;;;;;;;;5049332;28;20024;-59
2023/09/21 11:17:39;;;;;;;5.13;2.40;;;;;;;;;;5050652;28;20105;-60
2023/09/21 11:20:04;;;;;;;1.98;1.52;;;;;;;;;;5048717;28;20013;-59
2023/09/21 11:22:30;;;;;;;6.03;1.73;;;;;;;;;;5050608;28;20526;-59
2023/09/21 11:24:55;;;;;;;2.13;1.67;;;;;;;;;;5050511;28;20021;-59
2023/09/21 11:27:25;;;;;;;1.98;1.48;;;;;;;;;;5048544;28;20790;-59
2023/09/21 11:29:51;;;;;;;1.92;1.55;;;;;;;;;;5050690;28;20032;-59
2023/09/21 11:32:19;;;;;;;2.58;1.48;;;;;;;;;;5048954;28;20123;-58
2023/09/21 11:34:44;;;;;;;3.50;1.40;;;;;;;;;;5049807;28;20024;-58
2023/09/21 11:37:11;;;;;;;2.50;1.40;;;;;;;;;;5066536;28;20082;-58
2023/09/21 11:39:40;;;;;;;1.98;1.27;;;;;;;;;;5070406;28;20069;-59
2023/09/21 11:42:08;;;;;;;2.92;1.50;;;;;;;;;;5068605;28;20056;-58
2023/09/21 11:44:34;;;;;;;1.88;1.60;;;;;;;;;;5070345;28;20104;-58
2023/09/21 11:47:01;;;;;;;4.38;1.92;;;;;;;;;;5068779;28;20174;-59
2023/09/21 11:49:39;;;;;;;4.63;2.45;;;;;;;;;;5070168;28;20433;-58
2023/09/21 11:52:05;;;;;;;1.67;1.35;;;;;;;;;;5069039;28;20117;-58
2023/09/21 11:54:34;;;;;;;2.10;1.75;;;;;;;;;;5070431;28;20527;-59
2023/09/21 11:57:00;;;;;;;1.92;1.38;;;;;;;;;;5068533;28;20028;-58
2023/09/21 11:59:25;;;;;;;4.72;2.60;;;;;;;;;;5070174;28;20675;-58
2023/09/21 12:01:51;;;;;;;3.00;2.00;;;;;;;;;;5068504;28;20025;-66
2023/09/21 12:04:17;;;;;;;2.40;2.13;;;;;;;;;;5069664;28;20035;-58
2023/09/21 12:06:42;;;;;;;2.13;1.50;;;;;;;;;;5069691;28;20037;-70
2023/09/21 12:09:07;;;;;;;3.70;1.83;;;;;;;;;;5074602;28;20031;-58
2023/09/21 12:11:34;;;;;;;6.43;2.90;;;;;;;;;;5072212;28;20457;-58
2023/09/21 12:14:02;;;;;;;1.73;1.63;;;;;;;;;;5074018;28;20483;-59
2023/09/21 12:16:30;;;;;;;3.60;1.67;;;;;;;;;;5072674;28;20033;-58
2023/09/21 12:18:57;;;;;;;2.45;1.38;;;;;;;;;;5073751;28;20021;-58
2023/09/21 12:21:23;;;;;;;10.05;1.75;;;;;;;;;;5072466;28;20044;-58
2023/09/21 12:23:49;;;;;;;2.70;1.95;;;;;;;;;;5074086;28;20012;-58
2023/09/21 12:26:14;;;;;;;2.50;1.75;;;;;;;;;;5070635;28;20042;-58
2023/09/21 12:28:39;;;;;;;3.17;1.60;;;;;;;;;;5073574;28;20107;-59
2023/09/21 12:31:05;;;;;;;2.67;2.23;;;;;;;;;;5072247;28;20222;-58
2023/09/21 12:33:31;;;;;;;1.77;1.67;;;;;;;;;;5069681;28;20064;-59
2023/09/21 12:35:56;;;;;;;3.47;1.58;;;;;;;;;;5072021;28;20020;-57
2023/09/21 12:38:22;;;;;;;2.83;1.73;;;;;;;;;;5073517;28;20393;-59
2023/09/21 12:40:47;;;;;;;1.60;1.50;;;;;;;;;;5073141;28;20013;-65
2023/09/21 12:43:13;;;;;;;3.17;1.52;;;;;;;;;;5059317;28;20525;-59
2023/09/21 12:45:38;;;;;;;2.25;1.77;;;;;;;;;;5053224;28;20636;-58
2023/09/21 12:48:07;;;;;;;2.93;1.60;;;;;;;;;;5050965;28;20399;-59
2023/09/21 12:50:33;;;;;;;4.32;1.83;;;;;;;;;;5053269;28;20450;-58
2023/09/21 12:52:58;;;;;;;2.55;1.65;;;;;;;;;;5050940;28;20037;-59
2023/09/21 12:55:24;;;;;;;3.00;1.52;;;;;;;;;;5053201;28;20020;-58
2023/09/21 12:57:50;;;;;;;2.97;1.97;;;;;;;;;;5051354;28;20037;-59
2023/09/21 13:00:18;;;;;;;1.75;1.65;;;;;;;;;;5053499;28;20060;-59
2023/09/21 13:02:43;;;;;;;;;;;;;;;;;;5052091;28;20033;-59
2023/09/21 13:05:12;;;;;;;4.07;2.17;;;;;;;;;;5064108;28;19908;-58
2023/09/21 13:07:37;;;;;;;2.53;1.67;;;;;;;;;;5070769;28;20534;-59
2023/09/21 13:10:03;;;;;;;1.70;1.45;;;;;;;;;;5072749;28;20060;-59
2023/09/21 13:12:28;;;;;;;7.18;2.25;;;;;;;;;;5070952;28;20036;-59
2023/09/21 13:14:53;;;;;;;2.13;1.60;;;;;;;;;;5071970;28;20063;-59
2023/09/21 13:17:21;;;;;;;1.55;1.45;;;;;;;;;;5069992;28;20048;-59
2023/09/21 13:19:47;;;;;;;3.20;1.77;;;;;;;;;;5069371;28;20020;-66
2023/09/21 13:22:12;;;;;;;2.78;1.77;;;;;;;;;;5069961;28;20029;-58
2023/09/21 13:24:37;;;;;;;11.80;2.33;;;;;;;;;;5072305;28;20027;-58
2023/09/21 13:27:03;;;;;;;2.00;1.90;;;;;;;;;;5070834;28;20455;-58
2023/09/21 13:29:28;;;;;;;2.22;1.70;;;;;;;;;;5072680;28;20738;-58
2023/09/21 13:31:54;;;;;;;3.50;2.08;;;;;;;;;;5070916;28;20127;-58
2023/09/21 13:34:21;;;;;;;3.13;2.10;;;;;;;;;;5071948;28;20431;-58
2023/09/21 13:36:46;;;;;;;2.47;2.28;;;;;;;;;;5070986;28;20040;-60
2023/09/21 13:39:11;;;;;;;1.80;1.70;;;;;;;;;;5072727;28;20020;-58
2023/09/21 13:41:37;;;;;;;2.13;1.85;;;;;;;;;;5070421;28;20036;-58
2023/09/21 13:44:03;;;;;;;2.88;1.63;;;;;;;;;;5072744;28;20032;-58
2023/09/21 13:46:29;;;;;;;4.13;2.27;;;;;;;;;;5070713;28;20040;-58
2023/09/21 13:48:55;;;;;;;2.70;1.85;;;;;;;;;;5070266;28;20435;-58
2023/09/21 13:51:21;;;;;;;4.18;1.80;;;;;;;;;;5070627;28;20040;-58
2023/09/21 13:53:46;;;;;;;5.03;3.30;;;;;;;;;;5072167;28;20020;-58
2023/09/21 13:56:12;;;;;;;2.38;2.17;;;;;;;;;;5070323;28;20041;-58
2023/09/21 13:58:38;;;;;;;5.32;2.38;;;;;;;;;;5071947;28;20046;-57
2023/09/21 14:01:03;;;;;;;2.30;1.60;;;;;;;;;;5070587;28;20041;-57
2023/09/21 14:03:30;;;;;;;5.35;2.20;;;;;;;;;;5071923;28;20024;-57
2023/09/21 14:05:56;;;;;;;3.25;2.15;;;;;;;;;;5070509;28;20032;-57
2023/09/21 14:08:22;;;;;;;2.92;1.80;;;;;;;;;;5071995;28;20528;-58
2023/09/21 14:10:47;;;;;;;2.30;2.10;;;;;;;;;;5063753;28;20770;-58
2023/09/21 14:13:13;;;;;;;2.53;2.22;;;;;;;;;;5042729;28;20100;-58
2023/09/21 14:15:39;;;;;;;4.78;2.63;;;;;;;;;;5049337;28;20041;-59
2023/09/21 14:18:05;;;;;;;4.38;2.47;;;;;;;;;;5051173;28;20025;-58
2023/09/21 14:20:30;;;;;;;8.50;3.40;;;;;;;;;;5048104;28;20481;-59
2023/09/21 14:22:55;;;;;;;2.67;2.47;;;;;;;;;;5050535;28;20021;-59
2023/09/21 14:25:20;;;;;;;2.47;2.28;;;;;;;;;;5049441;28;20017;-57
2023/09/21 14:27:45;;;;;;;3.17;2.77;;;;;;;;;;5051181;28;20029;-56
2023/09/21 14:30:11;;;;;;;7.03;3.15;;;;;;;;;;5048437;28;20438;-56
2023/09/21 14:32:36;;;;;;;7.10;3.78;;;;;;;;;;5050533;28;20476;-58
2023/09/21 14:35:02;;;;;;;9.23;3.27;;;;;;;;;;5051390;28;20102;-58
2023/09/21 14:37:27;;;;;;;8.73;3.42;;;;;;;;;;5049460;28;20503;-58